Terminal Aerodrome Forecast
Issued by NWS Bismarck, ND

Home | Current Version | Previous Version | Graphics & Text | Print | Product List | Glossary On
Versions: 1 2 3 4 5 6 7 8 9 10 11 12 13 14 15 16 17
555
FTUS43 KBIS 161734
TAFISN
TAF
KISN 161734Z 1618/1718 25014G24KT P6SM SKC
     FM170000 25006KT P6SM SKC
     FM170600 20005KT P6SM FEW250 WS020/27030KT
     FM171600 23010KT P6SM SKC=

USA.gov is the U.S. government's official web portal to all federal, state and local government web resources and services.